Time;durP1;ratioP1;P1;durP2;ratioP2;P2;SDS_P1;SDS_P2;PMS_P1;PMS_P2;Temp;Humidity;BMP_temperature;BMP_pressure;BME280_temperature;BME280_humidity;BME280_pressure;Samples;Min_cycle;Max_cycle;Signal;HPM_P1;HPM_P2
2022/11/18 00:03:25;;;;;;;2.10;0.98;;;16.00;73.30;;;;;;10449538;28;20067;-62
2022/11/18 00:08:26;;;;;;;0.95;0.65;;;16.10;73.10;;;;;;10432916;28;20119;-63
2022/11/18 00:18:46;;;;;;;2.28;0.70;;;16.00;73.20;;;;;;10450183;28;20427;-63
2022/11/18 00:23:48;;;;;;;1.92;0.75;;;16.00;73.40;;;;;;10431868;28;20040;-62
2022/11/18 00:28:48;;;;;;;1.20;0.90;;;15.90;73.60;;;;;;10448818;28;20491;-63
2022/11/18 00:33:49;;;;;;;1.15;0.65;;;16.00;73.40;;;;;;10448619;28;20106;-63
2022/11/18 00:38:50;;;;;;;1.75;0.73;;;16.00;72.90;;;;;;10449516;28;20456;-63
2022/11/18 00:43:50;;;;;;;2.20;0.75;;;16.10;72.90;;;;;;10447109;28;20123;-63
2022/11/18 00:48:51;;;;;;;1.95;0.80;;;16.10;73.20;;;;;;10449069;28;20123;-62
2022/11/18 00:53:53;;;;;;;0.82;0.60;;;16.00;73.30;;;;;;10430995;28;20480;-63
2022/11/18 00:58:54;;;;;;;1.45;0.70;;;15.90;73.40;;;;;;10449153;28;20021;-62
2022/11/18 01:03:56;;;;;;;1.13;0.50;;;16.10;73.10;;;;;;10435034;28;20068;-63
2022/11/18 01:08:56;;;;;;;1.17;0.70;;;16.10;72.90;;;;;;10448724;28;20533;-63
2022/11/18 01:13:57;;;;;;;2.30;0.80;;;16.10;73.00;;;;;;10446880;28;20524;-63
2022/11/18 01:18:58;;;;;;;1.17;0.63;;;16.00;73.10;;;;;;10448445;28;20057;-63
2022/11/18 01:23:58;;;;;;;1.00;0.60;;;16.00;73.30;;;;;;10446341;28;20056;-62
2022/11/18 01:28:59;;;;;;;2.63;0.80;;;16.00;73.20;;;;;;10446491;28;20512;-62
2022/11/18 01:34:00;;;;;;;0.93;0.70;;;16.10;72.70;;;;;;10445807;28;20095;-63
2022/11/18 01:39:00;;;;;;;0.75;0.60;;;16.10;72.70;;;;;;10446065;28;20112;-62
2022/11/18 01:44:24;;;;;;;1.73;0.70;;;16.10;72.80;;;;;;10445780;28;20111;-61
2022/11/18 01:49:25;;;;;;;1.88;0.60;;;16.00;73.10;;;;;;10452075;28;20025;-62
2022/11/18 01:54:35;;;;;;;1.40;0.70;;;15.90;73.30;;;;;;10428530;28;20025;-63
2022/11/18 01:59:41;;;;;;;1.10;0.75;;;15.90;73.50;;;;;;10437235;28;20057;-63
2022/11/18 02:04:50;;;;;;;1.25;0.60;;;15.80;73.60;;;;;;10424607;28;20033;-63
2022/11/18 02:09:52;;;;;;;1.42;0.70;;;15.90;73.70;;;;;;10445198;28;20032;-62
2022/11/18 02:14:53;;;;;;;1.38;0.70;;;16.00;73.10;;;;;;10445868;28;20021;-63
2022/11/18 02:20:02;;;;;;;1.17;0.63;;;16.00;72.90;;;;;;10445324;28;20032;-63
2022/11/18 02:25:07;;;;;;;1.27;0.52;;;16.00;73.00;;;;;;10446002;28;20052;-63
2022/11/18 02:30:11;;;;;;;2.35;1.05;;;16.00;73.10;;;;;;10418770;28;20035;-63
2022/11/18 02:36:01;;;;;;;1.42;0.60;;;15.90;73.30;;;;;;10427682;28;20049;-63
2022/11/18 02:41:08;;;;;;;0.87;0.40;;;15.90;73.40;;;;;;10445721;28;20075;-63
2022/11/18 02:46:14;;;;;;;1.40;0.50;;;16.10;72.90;;;;;;10444713;28;20060;-63
2022/11/18 02:51:21;;;;;;;0.90;0.47;;;16.10;72.60;;;;;;10444256;28;20013;-63
2022/11/18 02:56:23;;;;;;;1.23;0.60;;;16.10;72.70;;;;;;10450661;28;20407;-63
2022/11/18 03:01:35;;;;;;;1.30;0.60;;;16.00;72.90;;;;;;10451935;28;20045;-63
2022/11/18 03:06:41;;;;;;;1.85;0.65;;;15.90;73.10;;;;;;10435297;28;20468;-63
2022/11/18 03:12:06;;;;;;;1.35;0.45;;;16.00;73.00;;;;;;10435610;28;20036;-62
2022/11/18 03:17:29;;;;;;;1.38;0.60;;;16.10;72.60;;;;;;10451653;28;20692;-62
2022/11/18 03:22:38;;;;;;;1.40;0.68;;;16.10;72.60;;;;;;10435746;28;20348;-62
2022/11/18 03:28:14;;;;;;;1.10;0.60;;;16.00;72.70;;;;;;10451199;28;20039;-62
2022/11/18 03:33:24;;;;;;;1.05;0.60;;;16.00;72.90;;;;;;10448262;28;20754;-62
2022/11/18 03:38:30;;;;;;;1.08;0.52;;;16.00;73.00;;;;;;10443422;28;20086;-62
2022/11/18 03:43:38;;;;;;;1.10;0.50;;;16.10;72.50;;;;;;10450483;28;20381;-63
2022/11/18 03:48:55;;;;;;;1.25;0.50;;;16.10;72.40;;;;;;10450332;28;20017;-63
2022/11/18 03:54:09;;;;;;;2.17;0.70;;;16.10;72.60;;;;;;10481378;28;20029;-63
2022/11/18 03:59:30;;;;;;;1.33;0.52;;;16.10;72.60;;;;;;10449933;28;20024;-63
2022/11/18 04:04:31;;;;;;;1.05;0.60;;;16.10;72.70;;;;;;10448906;28;20121;-62
2022/11/18 04:09:46;;;;;;;1.60;0.70;;;16.00;72.80;;;;;;10449375;28;20009;-63
2022/11/18 04:14:51;;;;;;;2.92;0.73;;;15.90;73.00;;;;;;10449719;28;20035;-63
2022/11/18 04:19:51;;;;;;;1.33;0.60;;;16.00;73.00;;;;;;10432545;28;20021;-63
2022/11/18 04:24:52;;;;;;;1.20;0.57;;;16.00;72.80;;;;;;10431969;28;20135;-63
2022/11/18 04:29:53;;;;;;;0.73;0.38;;;15.90;72.90;;;;;;10448804;28;20053;-63
2022/11/18 04:34:53;;;;;;;1.38;0.75;;;15.90;73.20;;;;;;10450006;28;20065;-63
2022/11/18 04:39:54;;;;;;;1.33;0.50;;;15.80;73.30;;;;;;10448113;28;20118;-63
2022/11/18 04:44:55;;;;;;;0.85;0.57;;;15.80;73.50;;;;;;10448081;28;20075;-63
2022/11/18 04:49:55;;;;;;;1.23;0.60;;;15.90;73.00;;;;;;10447620;28;20028;-63
2022/11/18 04:54:56;;;;;;;0.50;0.40;;;16.10;72.60;;;;;;10447525;28;20029;-63
2022/11/18 04:59:57;;;;;;;0.90;0.52;;;16.10;72.40;;;;;;10430942;28;20560;-63
2022/11/18 05:04:57;;;;;;;1.63;0.82;;;16.10;72.50;;;;;;10447280;28;20071;-63
2022/11/18 05:09:58;;;;;;;1.67;0.50;;;16.00;72.70;;;;;;10446992;28;20120;-63
2022/11/18 05:14:59;;;;;;;0.65;0.30;;;15.90;72.90;;;;;;10480357;28;20044;-63
2022/11/18 05:20:00;;;;;;;0.80;0.55;;;15.80;73.10;;;;;;10446153;28;20388;-63
2022/11/18 05:25:01;;;;;;;0.95;0.60;;;15.80;73.30;;;;;;10446326;28;20068;-63
2022/11/18 05:30:02;;;;;;;1.25;0.50;;;15.90;73.30;;;;;;10445220;28;20013;-63
2022/11/18 05:35:02;;;;;;;1.73;0.60;;;16.00;72.80;;;;;;10445208;28;20040;-62
2022/11/18 05:40:04;;;;;;;1.30;0.80;;;16.20;72.90;;;;;;10439821;28;20116;-61
2022/11/18 05:45:05;;;;;;;2.35;1.30;;;16.50;72.00;;;;;;10444123;28;20109;-60
2022/11/18 05:50:07;;;;;;;4.22;1.95;;;16.90;70.50;;;;;;10445407;28;20025;-62
2022/11/18 05:55:09;;;;;;;7.57;2.00;;;17.00;71.80;;;;;;10445122;28;20095;-62
2022/11/18 06:00:11;;;;;;;4.75;1.90;;;17.10;72.40;;;;;;10447896;28;20036;-62
2022/11/18 06:05:12;;;;;;;10.15;2.20;;;17.10;73.00;;;;;;10445805;28;20115;-64
2022/11/18 06:10:29;;;;;;;6.95;2.17;;;17.10;73.30;;;;;;10446222;28;20059;-63
2022/11/18 06:15:41;;;;;;;8.07;2.42;;;17.00;74.30;;;;;;10433836;28;20495;-64
2022/11/18 06:20:42;;;;;;;10.55;2.55;;;17.10;73.10;;;;;;10444862;28;20060;-65
2022/11/18 06:25:42;;;;;;;10.13;3.22;;;17.10;73.80;;;;;;10444772;28;20121;-64
2022/11/18 06:30:43;;;;;;;11.25;2.65;;;17.00;73.00;;;;;;10450352;28;20480;-67
2022/11/18 06:35:44;;;;;;;15.15;2.40;;;17.10;73.20;;;;;;10435803;28;20483;-65
2022/11/18 06:40:44;;;;;;;10.05;2.17;;;17.10;73.00;;;;;;10452014;28;20043;-68
2022/11/18 06:46:54;;;;;;;7.20;2.45;;;17.10;73.70;;;;;;10448311;28;20021;-64
2022/11/18 06:51:06;;;;;;;9.45;3.53;;;17.10;72.80;;;;;;10449520;28;20027;-65
2022/11/18 06:56:13;;;;;;;9.55;2.90;;;17.30;72.80;;;;;;10448403;28;20036;-65
2022/11/18 07:01:17;;;;;;;16.92;3.83;;;17.40;72.10;;;;;;10447050;28;20056;-62
2022/11/18 07:06:21;;;;;;;11.23;2.85;;;17.60;71.90;;;;;;10447691;28;20028;-66
2022/11/18 07:11:24;;;;;;;11.00;3.17;;;17.70;71.70;;;;;;10447119;28;20022;-65
2022/11/18 07:16:26;;;;;;;16.40;3.42;;;17.60;72.20;;;;;;10450935;28;20013;-67
2022/11/18 07:21:28;;;;;;;18.38;3.58;;;17.50;72.30;;;;;;10450990;28;20021;-68
2022/11/18 07:26:28;;;;;;;26.95;4.22;;;17.40;72.20;;;;;;10448938;28;20049;-66
2022/11/18 07:31:30;;;;;;;17.65;3.00;;;17.30;72.10;;;;;;10448675;28;20447;-66
2022/11/18 07:36:31;;;;;;;16.90;3.00;;;17.40;71.80;;;;;;10432899;28;20048;-68
2022/11/18 07:41:32;;;;;;;10.05;2.05;;;17.30;71.80;;;;;;10447757;28;20028;-66
2022/11/18 07:46:36;;;;;;;9.27;2.08;;;17.30;72.60;;;;;;10448710;28;20029;-65
2022/11/18 07:51:39;;;;;;;15.23;2.60;;;17.40;72.60;;;;;;10448412;28;20086;-68
2022/11/18 07:56:39;;;;;;;12.07;2.22;;;17.40;72.10;;;;;;10446699;28;20041;-66
2022/11/18 08:01:40;;;;;;;11.57;2.17;;;17.40;71.80;;;;;;10433257;28;20021;-66
2022/11/18 08:06:41;;;;;;;10.52;2.10;;;17.50;71.80;;;;;;10451306;28;20112;-66
2022/11/18 08:11:41;;;;;;;9.10;2.65;;;17.50;71.90;;;;;;10451296;28;20648;-64
2022/11/18 08:16:42;;;;;;;16.25;2.53;;;17.50;72.10;;;;;;10447873;28;20018;-67
2022/11/18 08:21:42;;;;;;;17.08;3.80;;;17.50;72.30;;;;;;10449682;28;20444;-65
2022/11/18 08:26:44;;;;;;;13.43;3.50;;;17.50;71.90;;;;;;10448471;28;20064;-67
2022/11/18 08:31:44;;;;;;;11.30;2.22;;;17.40;72.00;;;;;;10450924;28;20021;-65
2022/11/18 08:36:45;;;;;;;11.50;1.75;;;17.50;71.90;;;;;;10448770;28;20041;-66
2022/11/18 08:41:46;;;;;;;9.38;1.83;;;17.60;71.60;;;;;;10449187;28;20501;-65
2022/11/18 08:46:47;;;;;;;8.93;2.10;;;17.50;71.60;;;;;;10439390;28;20405;-65
2022/11/18 08:51:48;;;;;;;12.93;2.08;;;17.50;71.70;;;;;;10478432;28;20021;-67
2022/11/18 08:56:49;;;;;;;15.30;2.53;;;17.60;71.40;;;;;;10430901;28;20029;-66
2022/11/18 09:01:50;;;;;;;10.38;2.55;;;17.60;71.70;;;;;;10448082;28;20151;-65
2022/11/18 09:06:50;;;;;;;11.13;1.65;;;17.50;74.20;;;;;;10449016;28;20175;-66
2022/11/18 09:11:51;;;;;;;8.32;2.03;;;17.40;76.50;;;;;;10447508;28;20108;-66
2022/11/18 09:16:52;;;;;;;11.52;2.25;;;17.40;78.50;;;;;;10447635;28;20456;-66
2022/11/18 09:21:52;;;;;;;12.10;2.50;;;17.30;78.20;;;;;;10479055;28;20124;-66
2022/11/18 09:26:53;;;;;;;11.30;3.13;;;17.30;78.00;;;;;;10447018;28;20608;-66
2022/11/18 09:31:54;;;;;;;7.13;2.00;;;17.20;75.80;;;;;;10446605;28;20128;-62
2022/11/18 09:36:55;;;;;;;16.92;4.10;;;17.10;75.40;;;;;;10444781;28;20077;-68
2022/11/18 09:42:20;;;;;;;16.13;2.50;;;17.10;75.50;;;;;;10445071;28;20029;-64
2022/11/18 09:47:32;;;;;;;12.32;2.92;;;17.00;75.90;;;;;;10445815;28;20033;-64
2022/11/18 09:52:56;;;;;;;16.02;2.50;;;17.00;75.60;;;;;;10429557;28;20009;-64
2022/11/18 09:57:58;;;;;;;24.10;5.43;;;17.10;75.00;;;;;;10447132;28;20337;-64
2022/11/18 10:03:21;;;;;;;10.15;1.50;;;17.20;74.70;;;;;;10444719;28;20033;-63
2022/11/18 10:08:32;;;;;;;13.27;2.17;;;17.10;74.70;;;;;;10445699;28;20338;-63
2022/11/18 10:13:35;;;;;;;7.35;2.67;;;17.10;74.90;;;;;;10445420;28;20636;-64
2022/11/18 10:19:02;;;;;;;6.13;1.98;;;17.00;75.00;;;;;;10446735;28;20398;-64
2022/11/18 10:24:20;;;;;;;6.68;2.50;;;17.00;75.00;;;;;;10445269;28;20040;-63
2022/11/18 10:29:22;;;;;;;8.05;1.45;;;16.90;75.20;;;;;;10445583;28;20021;-64
2022/11/18 10:34:23;;;;;;;5.70;1.70;;;16.90;75.30;;;;;;10428773;28;20040;-64
2022/11/18 10:39:23;;;;;;;7.43;1.83;;;16.90;75.00;;;;;;10444991;28;20792;-63
2022/11/18 10:44:38;;;;;;;9.23;1.88;;;16.90;75.20;;;;;;10434157;28;20025;-63
2022/11/18 10:49:39;;;;;;;4.15;1.50;;;16.80;75.50;;;;;;10427947;28;20032;-64
2022/11/18 10:54:41;;;;;;;7.35;1.38;;;16.70;75.70;;;;;;10441895;28;20023;-64
2022/11/18 10:59:50;;;;;;;7.35;1.75;;;16.70;75.80;;;;;;10444231;28;20478;-66
2022/11/18 11:04:52;;;;;;;6.00;1.55;;;16.60;75.90;;;;;;10443436;28;20063;-66
2022/11/18 11:10:05;;;;;;;4.05;2.33;;;16.70;75.70;;;;;;10448399;28;20135;-66
2022/11/18 11:15:12;;;;;;;10.52;2.00;;;16.70;76.10;;;;;;10460601;28;20364;-65
2022/11/18 11:20:16;;;;;;;13.05;1.70;;;16.80;76.60;;;;;;10439081;28;20028;-66
2022/11/18 11:25:22;;;;;;;5.03;1.45;;;16.80;75.50;;;;;;10452821;28;20033;-66
2022/11/18 11:30:23;;;;;;;5.03;1.60;;;16.80;76.00;;;;;;10450907;28;20052;-66
2022/11/18 11:35:47;;;;;;;3.28;1.70;;;16.70;76.40;;;;;;10452847;28;20423;-64
2022/11/18 11:41:28;;;;;;;5.10;1.30;;;16.60;76.70;;;;;;10434892;28;20045;-64
2022/11/18 11:52:47;;;;;;;6.15;1.70;;;16.70;76.60;;;;;;10452462;28;20017;-66
2022/11/18 11:58:09;;;;;;;9.27;1.52;;;16.80;76.80;;;;;;10414759;28;20032;-69
2022/11/18 12:03:27;;;;;;;6.30;1.27;;;16.80;76.70;;;;;;10449893;28;20592;-68
2022/11/18 12:08:32;;;;;;;7.15;1.17;;;16.80;76.70;;;;;;10448594;28;20017;-68
2022/11/18 12:13:53;;;;;;;11.23;1.50;;;16.80;76.70;;;;;;10443459;28;20024;-66
2022/11/18 12:19:07;;;;;;;4.57;1.42;;;16.80;76.80;;;;;;10454593;28;20150;-63
2022/11/18 12:24:30;;;;;;;4.68;1.73;;;16.80;76.60;;;;;;10449463;28;20640;-64
2022/11/18 12:29:55;;;;;;;6.40;1.45;;;16.80;76.90;;;;;;10449958;28;20019;-69
2022/11/18 12:35:12;;;;;;;8.43;2.83;;;16.90;77.00;;;;;;10447099;28;20128;-66
2022/11/18 12:40:43;;;;;;;5.63;1.17;;;16.90;76.90;;;;;;10448408;28;20132;-67
2022/11/18 12:45:44;;;;;;;5.00;0.98;;;16.80;76.90;;;;;;10445362;28;20486;-65
2022/11/18 12:50:59;;;;;;;6.35;1.30;;;16.80;77.00;;;;;;10447539;28;20013;-67
2022/11/18 12:56:08;;;;;;;4.90;1.30;;;16.90;76.70;;;;;;10447874;28;20033;-63
2022/11/18 13:01:16;;;;;;;6.03;1.30;;;16.90;76.30;;;;;;10447762;28;20074;-67
2022/11/18 13:06:37;;;;;;;7.10;1.40;;;17.00;76.50;;;;;;10446578;28;20102;-65
2022/11/18 13:11:56;;;;;;;5.82;1.40;;;16.90;76.30;;;;;;10446356;28;20040;-61
2022/11/18 13:28:13;;;;;;;7.60;1.50;;;17.00;76.10;;;;;;10446886;28;20037;-63
2022/11/18 13:33:14;;;;;;;11.55;1.63;;;16.90;76.20;;;;;;10431618;28;20481;-63
2022/11/18 13:38:24;;;;;;;15.60;2.53;;;17.00;76.20;;;;;;10434764;28;20013;-61
2022/11/18 13:43:25;;;;;;;10.40;2.40;;;16.90;76.70;;;;;;10446383;28;20533;-63
2022/11/18 13:48:27;;;;;;;16.10;2.85;;;16.90;76.60;;;;;;10421610;28;20671;-64
2022/11/18 13:53:40;;;;;;;15.40;2.40;;;16.80;77.30;;;;;;10420972;28;20545;-62
2022/11/18 13:58:49;;;;;;;12.52;2.38;;;16.80;77.30;;;;;;10455580;28;20021;-63
2022/11/18 14:04:04;;;;;;;7.63;1.77;;;16.70;78.00;;;;;;10446062;28;20043;-63
2022/11/18 14:09:28;;;;;;;10.77;2.03;;;16.60;78.20;;;;;;10442416;28;20021;-62
2022/11/18 14:14:38;;;;;;;6.00;1.83;;;16.60;78.50;;;;;;10444290;28;20028;-63
2022/11/18 14:19:39;;;;;;;11.80;1.77;;;16.60;78.40;;;;;;10424458;28;20112;-63
2022/11/18 14:24:41;;;;;;;14.30;2.60;;;16.50;78.70;;;;;;10433015;28;20037;-62
2022/11/18 14:29:49;;;;;;;13.75;3.45;;;16.60;78.50;;;;;;10463358;28;20028;-62
2022/11/18 14:35:00;;;;;;;29.70;4.40;;;16.60;78.80;;;;;;10460721;28;20049;-66
2022/11/18 14:40:00;;;;;;;25.85;3.58;;;16.60;78.70;;;;;;10461672;28;20104;-65
2022/11/18 14:45:01;;;;;;;29.75;4.50;;;16.70;78.30;;;;;;10460393;28;20468;-63
2022/11/18 14:50:02;;;;;;;17.58;3.50;;;16.70;78.20;;;;;;10447074;28;20105;-61
2022/11/18 14:55:03;;;;;;;19.30;3.85;;;16.80;77.80;;;;;;10450868;28;20033;-62
2022/11/18 15:00:04;;;;;;;18.38;3.25;;;16.90;77.90;;;;;;10452184;28;20092;-62
2022/11/18 15:05:05;;;;;;;19.40;3.17;;;16.90;77.90;;;;;;10435239;28;20465;-60
2022/11/18 15:10:08;;;;;;;23.02;4.35;;;16.80;78.00;;;;;;10447951;28;20648;-58
2022/11/18 15:15:09;;;;;;;13.50;2.58;;;16.90;77.70;;;;;;10449661;28;20069;-59
2022/11/18 15:20:14;;;;;;;18.08;3.15;;;16.90;77.50;;;;;;10449029;28;20051;-59
2022/11/18 15:25:15;;;;;;;13.15;3.95;;;17.00;77.80;;;;;;10450513;28;20056;-59
2022/11/18 15:30:16;;;;;;;12.88;2.67;;;16.90;77.10;;;;;;10451752;28;20078;-58
2022/11/18 15:35:16;;;;;;;15.43;3.10;;;17.00;77.30;;;;;;10450009;28;20098;-58
2022/11/18 15:40:17;;;;;;;15.40;3.35;;;17.10;77.20;;;;;;10450462;28;20051;-59
2022/11/18 15:45:18;;;;;;;12.88;2.70;;;17.10;76.20;;;;;;10449367;28;20174;-58
2022/11/18 15:50:19;;;;;;;9.13;2.85;;;17.10;76.50;;;;;;10437375;28;20025;-59
2022/11/18 15:55:19;;;;;;;9.23;2.47;;;17.10;76.20;;;;;;10439288;28;20100;-59
2022/11/18 16:00:20;;;;;;;14.02;3.13;;;17.00;76.10;;;;;;10442494;28;20060;-58
2022/11/18 16:05:21;;;;;;;13.75;3.00;;;16.90;77.20;;;;;;10441674;28;20021;-57
2022/11/18 16:15:43;;;;;;;9.15;1.98;;;16.90;76.90;;;;;;10448205;28;20684;-58
2022/11/18 16:20:44;;;;;;;16.10;2.55;;;16.90;77.00;;;;;;10441837;28;20021;-58
2022/11/18 16:25:45;;;;;;;27.65;3.58;;;16.80;77.10;;;;;;10440799;28;20372;-58
2022/11/18 16:36:08;;;;;;;10.93;2.78;;;16.80;77.10;;;;;;10442843;28;20644;-60
2022/11/18 16:46:30;;;;;;;26.97;3.83;;;16.70;78.20;;;;;;10449388;28;20037;-59
2022/11/18 16:51:33;;;;;;;20.00;4.05;;;16.80;76.90;;;;;;10446511;28;20028;-59
2022/11/18 16:56:35;;;;;;;9.40;2.30;;;16.80;77.80;;;;;;10442216;28;20021;-59
2022/11/18 17:01:35;;;;;;;17.90;3.88;;;16.80;77.50;;;;;;10423539;28;20033;-57
2022/11/18 17:06:38;;;;;;;14.00;3.10;;;16.70;78.60;;;;;;10448349;28;20057;-59
2022/11/18 17:11:38;;;;;;;8.93;3.10;;;16.90;76.40;;;;;;10444381;28;20021;-58
2022/11/18 17:16:40;;;;;;;15.80;3.10;;;16.70;77.80;;;;;;10444237;28;20100;-57
2022/11/18 17:21:42;;;;;;;19.92;4.13;;;16.70;76.90;;;;;;10444460;28;20577;-56
2022/11/18 17:26:43;;;;;;;13.60;2.75;;;17.00;77.70;;;;;;10445042;28;20124;-56
2022/11/18 17:31:44;;;;;;;14.88;3.20;;;17.30;77.60;;;;;;10447388;28;20016;-56
2022/11/18 17:36:45;;;;;;;21.02;3.95;;;17.40;76.20;;;;;;10447623;28;20048;-56
2022/11/18 17:47:04;;;;;;;7.27;3.13;;;17.40;76.30;;;;;;10446921;28;20037;-54
2022/11/18 17:52:05;;;;;;;13.45;3.22;;;17.30;75.70;;;;;;10445438;28;20525;-56
2022/11/18 17:57:06;;;;;;;17.13;3.15;;;17.20;75.40;;;;;;10445738;28;20036;-56
2022/11/18 18:02:10;;;;;;;11.23;2.65;;;17.10;75.40;;;;;;10446907;28;20100;-57
2022/11/18 18:07:11;;;;;;;13.90;3.50;;;17.00;75.60;;;;;;10434898;28;20055;-55
2022/11/18 18:17:31;;;;;;;6.10;2.20;;;16.90;75.70;;;;;;10446333;28;20472;-55
2022/11/18 18:22:31;;;;;;;11.27;3.05;;;16.80;75.70;;;;;;10445481;28;20056;-55
2022/11/18 18:27:32;;;;;;;6.57;2.28;;;16.70;75.90;;;;;;10452184;28;20590;-55
2022/11/18 18:32:33;;;;;;;8.50;3.15;;;16.70;76.50;;;;;;10451768;28;20019;-55
2022/11/18 18:37:34;;;;;;;9.77;3.17;;;16.70;76.00;;;;;;10462576;28;20632;-55
2022/11/18 18:42:35;;;;;;;10.02;3.70;;;16.60;75.90;;;;;;10447703;28;20020;-54
2022/11/18 18:47:36;;;;;;;9.27;3.28;;;16.60;76.10;;;;;;10440280;28;20021;-55
2022/11/18 18:52:36;;;;;;;7.55;2.80;;;16.60;76.40;;;;;;10449680;28;20089;-54
2022/11/18 18:57:37;;;;;;;7.43;3.03;;;16.50;77.10;;;;;;10439041;28;20018;-55
2022/11/18 19:02:38;;;;;;;6.15;2.83;;;16.50;77.60;;;;;;10433736;28;20049;-55
2022/11/18 19:07:42;;;;;;;5.70;2.78;;;16.40;77.50;;;;;;10449513;28;20037;-55
2022/11/18 19:12:42;;;;;;;5.18;2.53;;;16.40;77.70;;;;;;10451097;28;20368;-56
2022/11/18 19:17:44;;;;;;;6.03;2.63;;;16.40;77.60;;;;;;10451176;28;20096;-55
2022/11/18 19:22:44;;;;;;;6.95;3.28;;;16.40;77.00;;;;;;10452827;28;20040;-56
2022/11/18 19:27:45;;;;;;;6.95;2.13;;;16.40;77.10;;;;;;10450245;28;20613;-56
2022/11/18 19:32:46;;;;;;;5.18;2.28;;;16.40;77.00;;;;;;10451245;28;20029;-53
2022/11/18 19:37:47;;;;;;;7.50;2.80;;;16.40;76.80;;;;;;10450610;28;20057;-56
2022/11/18 19:42:48;;;;;;;7.63;2.75;;;16.40;76.80;;;;;;10451567;28;20021;-56
2022/11/18 19:47:49;;;;;;;9.50;3.25;;;16.30;76.80;;;;;;10483612;28;20033;-55
2022/11/18 19:52:50;;;;;;;5.00;2.58;;;16.30;76.90;;;;;;10450417;28;20040;-56
2022/11/18 19:57:50;;;;;;;7.25;3.13;;;16.20;76.90;;;;;;10449926;28;20052;-56
2022/11/18 20:02:52;;;;;;;5.40;2.38;;;16.20;77.00;;;;;;10451647;28;20112;-56
2022/11/18 20:07:54;;;;;;;6.20;2.90;;;16.20;77.00;;;;;;10449736;28;20033;-56
2022/11/18 20:12:56;;;;;;;4.70;2.25;;;16.10;77.00;;;;;;10453704;28;20032;-55
2022/11/18 20:17:57;;;;;;;7.95;2.70;;;16.10;77.10;;;;;;10432152;28;20033;-55
2022/11/18 20:22:57;;;;;;;7.55;2.63;;;16.10;77.20;;;;;;10449936;28;20045;-56
2022/11/18 20:27:58;;;;;;;5.60;2.50;;;16.10;77.10;;;;;;10450024;28;20047;-58
2022/11/18 20:32:59;;;;;;;5.80;2.63;;;16.10;77.10;;;;;;10449863;28;20101;-56
2022/11/18 20:38:00;;;;;;;5.50;3.42;;;16.00;77.10;;;;;;10448444;28;20134;-56
2022/11/18 20:43:13;;;;;;;6.53;3.50;;;16.00;77.00;;;;;;10482213;28;20401;-55
2022/11/18 20:48:13;;;;;;;5.60;2.70;;;16.00;77.20;;;;;;10447409;28;20060;-56
2022/11/18 20:53:15;;;;;;;6.25;2.85;;;16.00;77.10;;;;;;10448265;28;20810;-56
2022/11/18 20:58:17;;;;;;;4.28;2.47;;;15.90;77.00;;;;;;10447975;28;20107;-56
2022/11/18 21:03:20;;;;;;;5.63;3.25;;;15.90;77.00;;;;;;10449166;28;20171;-55
2022/11/18 21:08:20;;;;;;;5.45;2.67;;;15.90;77.00;;;;;;10447690;28;20013;-54
2022/11/18 21:18:40;;;;;;;4.97;3.20;;;15.90;76.90;;;;;;10448063;28;20028;-55
2022/11/18 21:23:41;;;;;;;4.22;2.63;;;15.90;76.90;;;;;;10448084;28;20457;-56
2022/11/18 21:28:41;;;;;;;6.32;3.25;;;15.90;76.90;;;;;;10430338;28;20072;-55
2022/11/18 21:33:42;;;;;;;5.65;3.00;;;15.90;76.80;;;;;;10444937;28;20068;-58
2022/11/18 21:38:43;;;;;;;6.70;3.00;;;15.80;76.60;;;;;;10444860;28;20106;-56
2022/11/18 21:43:44;;;;;;;5.88;3.45;;;15.90;76.50;;;;;;10445973;28;20040;-55
2022/11/18 21:48:45;;;;;;;5.45;3.13;;;15.90;76.50;;;;;;10445782;28;20025;-56
2022/11/18 21:53:46;;;;;;;5.22;3.38;;;15.80;76.50;;;;;;10445137;28;20078;-56
2022/11/18 21:58:48;;;;;;;5.60;3.22;;;15.80;76.40;;;;;;10447010;28;20427;-55
2022/11/18 22:03:52;;;;;;;4.00;2.38;;;15.80;76.40;;;;;;10444568;28;20411;-55
2022/11/18 22:08:53;;;;;;;3.60;2.65;;;15.80;76.40;;;;;;10445412;28;20017;-55
2022/11/18 22:13:54;;;;;;;6.97;2.95;;;15.70;76.30;;;;;;10444737;28;20056;-56
2022/11/18 22:18:56;;;;;;;4.57;2.78;;;15.70;76.30;;;;;;10444020;28;20025;-56
2022/11/18 22:23:58;;;;;;;5.15;2.30;;;15.70;76.00;;;;;;10444953;28;20098;-57
2022/11/18 22:28:59;;;;;;;5.22;3.33;;;15.70;76.20;;;;;;10444800;28;20029;-56
2022/11/18 22:34:00;;;;;;;3.63;2.70;;;15.70;76.20;;;;;;10444975;28;20053;-56
2022/11/18 22:39:00;;;;;;;5.30;2.85;;;15.70;76.10;;;;;;10446325;28;20049;-56
2022/11/18 22:44:03;;;;;;;4.57;2.92;;;15.80;75.90;;;;;;10446095;28;20048;-56
2022/11/18 22:49:06;;;;;;;4.28;3.00;;;15.80;75.60;;;;;;10442430;28;20568;-56
2022/11/18 22:54:07;;;;;;;4.53;2.90;;;15.80;75.50;;;;;;10427929;28;20025;-56
2022/11/18 22:59:10;;;;;;;4.72;3.00;;;15.80;75.40;;;;;;10445770;28;20079;-56
2022/11/18 23:04:11;;;;;;;4.95;3.45;;;15.80;75.30;;;;;;10427742;28;20033;-56
2022/11/18 23:09:12;;;;;;;3.97;3.03;;;15.80;75.20;;;;;;10477910;28;20021;-56
2022/11/18 23:14:13;;;;;;;4.55;2.78;;;15.80;75.20;;;;;;10451441;28;20029;-56
2022/11/18 23:19:15;;;;;;;3.88;2.55;;;15.70;75.10;;;;;;10452987;28;20047;-56
2022/11/18 23:24:17;;;;;;;4.78;2.78;;;15.80;75.10;;;;;;10434579;28;20032;-56
2022/11/18 23:29:19;;;;;;;4.20;3.13;;;15.80;74.70;;;;;;10451620;28;20037;-57
2022/11/18 23:34:19;;;;;;;4.38;3.13;;;15.90;74.30;;;;;;10434403;28;20071;-56
2022/11/18 23:39:20;;;;;;;4.43;2.65;;;16.00;74.10;;;;;;10452385;28;20146;-55
2022/11/18 23:44:43;;;;;;;3.60;2.25;;;16.00;74.10;;;;;;10452133;28;20049;-56
2022/11/18 23:49:41;;;;;;;3.00;2.33;;;16.00;74.10;;;;;;10450522;28;20049;-56
2022/11/18 23:54:42;;;;;;;4.20;2.65;;;15.90;74.10;;;;;;10450319;28;20157;-56
2022/11/18 23:59:43;;;;;;;4.45;3.13;;;15.90;74.10;;;;;;10451811;28;20128;-54
